EGV1339 EPKT-LEMD
Flight info
| Callsign | EGV1339 |
|---|---|
| Flight time | N/A |
| Altitude | 38000 |
| Route | TUSIN DCT UPLAV DCT DETSA/N0467F390 DCT NESTI DCT VOG DCT GEKBA DCT VAMTU DCT KOLON DCT GANGU DCT PADKO DCT DIVKO DCT NILDU DCT NENDA DCT BCN DCT ANTON DCT XIKEN DCT OSLAP DCT SALAS DCT RAMON DCT NEXAS DCT DISVU DCT ADUXO |
| Aircraft | A346/H-SDE2E3FGHIJ3J4J5M1RWXY/LB1D1 |
Departure
| Time | N/A |
|---|---|
| Airport | Katowice Wojciech Korfanty International Airport (EPKT) |
Arrival
| Time | 2026-04-30 18:47 |
|---|---|
| Airport | Adolfo Suárez Madrid–Barajas Airport (LEMD) |
| Time | Latitude | Longitude | Altitude | Speed | Heading |
|---|---|---|---|---|---|
| 2026-04-30 17:39 | 43.08788 | 4.87886 | 39140 ft | 431 kts | 246° |
| 2026-04-30 17:41 | 42.93164 | 4.62663 | 39145 ft | 442 kts | 226° |
| 2026-04-30 17:42 | 42.88584 | 4.57140 | 39120 ft | 442 kts | 226° |
| 2026-04-30 17:43 | 42.77025 | 4.43248 | 39136 ft | 443 kts | 226° |
| 2026-04-30 17:44 | 42.63128 | 4.26649 | 39124 ft | 443 kts | 226° |
| 2026-04-30 17:47 | 42.42283 | 4.01944 | 39118 ft | 441 kts | 226° |
| 2026-04-30 17:48 | 42.26453 | 3.82584 | 39109 ft | 434 kts | 232° |
| 2026-04-30 17:50 | 42.12187 | 3.56601 | 39098 ft | 430 kts | 238° |
| 2026-04-30 17:52 | 42.01718 | 3.36903 | 39101 ft | 431 kts | 238° |
| 2026-04-30 17:54 | 41.85957 | 3.07483 | 39093 ft | 430 kts | 238° |
| 2026-04-30 17:56 | 41.71895 | 2.81475 | 39090 ft | 430 kts | 237° |
| 2026-04-30 17:58 | 41.61027 | 2.62329 | 39094 ft | 431 kts | 235° |
| 2026-04-30 18:00 | 41.46259 | 2.37112 | 39091 ft | 431 kts | 235° |
| 2026-04-30 18:01 | 41.37027 | 2.21427 | 39094 ft | 431 kts | 236° |
| 2026-04-30 18:02 | 41.32422 | 2.11240 | 39081 ft | 428 kts | 247° |
| 2026-04-30 18:02 | 41.29578 | 1.99993 | 39099 ft | 428 kts | 258° |
| 2026-04-30 18:04 | 41.26765 | 1.76464 | 39098 ft | 430 kts | 261° |
| 2026-04-30 18:06 | 41.23055 | 1.44970 | 39094 ft | 433 kts | 261° |
| 2026-04-30 18:08 | 41.19706 | 1.17290 | 39093 ft | 433 kts | 261° |
| 2026-04-30 18:10 | 41.15794 | 0.85587 | 39075 ft | 436 kts | 260° |
| 2026-04-30 18:11 | 41.12275 | 0.57703 | 39059 ft | 439 kts | 259° |
| 2026-04-30 18:13 | 41.09706 | 0.37708 | 39063 ft | 439 kts | 259° |
| 2026-04-30 18:14 | 41.07093 | 0.17642 | 39055 ft | 442 kts | 259° |
| 2026-04-30 18:15 | 41.03904 | -0.06442 | 39039 ft | 442 kts | 259° |
| 2026-04-30 18:16 | 41.01736 | -0.22564 | 39040 ft | 443 kts | 258° |
| 2026-04-30 18:17 | 41.00292 | -0.30500 | 39041 ft | 442 kts | 252° |
| 2026-04-30 18:18 | 40.97265 | -0.42080 | 39047 ft | 442 kts | 250° |
| 2026-04-30 18:18 | 40.95185 | -0.49744 | 39049 ft | 442 kts | 250° |
| 2026-04-30 18:19 | 40.93099 | -0.57405 | 39044 ft | 442 kts | 250° |
| 2026-04-30 18:19 | 40.91005 | -0.65070 | 39048 ft | 442 kts | 249° |
| 2026-04-30 18:20 | 40.88908 | -0.72735 | 38865 ft | 444 kts | 249° |
| 2026-04-30 18:20 | 40.87856 | -0.76559 | 38490 ft | 441 kts | 249° |
| 2026-04-30 18:20 | 40.86817 | -0.80337 | 37950 ft | 440 kts | 249° |
| 2026-04-30 18:20 | 40.85757 | -0.84185 | 37402 ft | 438 kts | 249° |
| 2026-04-30 18:21 | 40.84724 | -0.87934 | 36861 ft | 437 kts | 249° |
| 2026-04-30 18:21 | 40.83679 | -0.91719 | 36292 ft | 437 kts | 249° |
| 2026-04-30 18:21 | 40.82635 | -0.95491 | 35655 ft | 438 kts | 249° |
| 2026-04-30 18:21 | 40.81586 | -0.99281 | 35027 ft | 439 kts | 249° |
| 2026-04-30 18:22 | 40.80532 | -1.03080 | 34386 ft | 440 kts | 249° |
| 2026-04-30 18:22 | 40.78413 | -1.10699 | 33003 ft | 442 kts | 249° |
| 2026-04-30 18:22 | 40.77349 | -1.14515 | 32315 ft | 444 kts | 249° |
| 2026-04-30 18:23 | 40.76278 | -1.18353 | 31587 ft | 446 kts | 249° |
| 2026-04-30 18:23 | 40.75201 | -1.22205 | 30834 ft | 449 kts | 248° |
| 2026-04-30 18:23 | 40.74110 | -1.26095 | 30102 ft | 452 kts | 248° |
| 2026-04-30 18:23 | 40.73016 | -1.29998 | 29282 ft | 454 kts | 249° |
| 2026-04-30 18:24 | 40.70813 | -1.37839 | 27925 ft | 456 kts | 249° |
| 2026-04-30 18:24 | 40.69710 | -1.41754 | 27363 ft | 454 kts | 249° |
| 2026-04-30 18:24 | 40.68611 | -1.45653 | 26886 ft | 453 kts | 249° |
| 2026-04-30 18:25 | 40.67515 | -1.49534 | 26362 ft | 449 kts | 249° |
| 2026-04-30 18:25 | 40.65356 | -1.57164 | 25425 ft | 439 kts | 249° |
| 2026-04-30 18:25 | 40.64292 | -1.60910 | 24963 ft | 434 kts | 249° |
| 2026-04-30 18:26 | 40.62541 | -1.67066 | 24201 ft | 428 kts | 249° |
| 2026-04-30 18:26 | 40.61500 | -1.70718 | 23747 ft | 424 kts | 249° |
| 2026-04-30 18:26 | 40.60463 | -1.74349 | 23232 ft | 421 kts | 249° |
| 2026-04-30 18:27 | 40.58420 | -1.81496 | 22293 ft | 412 kts | 249° |
| 2026-04-30 18:27 | 40.57414 | -1.85008 | 21824 ft | 408 kts | 249° |
| 2026-04-30 18:28 | 40.55410 | -1.91982 | 21114 ft | 413 kts | 249° |
| 2026-04-30 18:28 | 40.54386 | -1.95541 | 21104 ft | 418 kts | 249° |
| 2026-04-30 18:28 | 40.52322 | -2.02648 | 20565 ft | 412 kts | 248° |
| 2026-04-30 18:29 | 40.51150 | -2.06103 | 19826 ft | 413 kts | 244° |
| 2026-04-30 18:29 | 40.46883 | -2.15795 | 18134 ft | 403 kts | 238° |
| 2026-04-30 18:30 | 40.43962 | -2.22028 | 16858 ft | 397 kts | 238° |
| 2026-04-30 18:30 | 40.41092 | -2.28147 | 15848 ft | 389 kts | 238° |
| 2026-04-30 18:31 | 40.39684 | -2.31151 | 15386 ft | 384 kts | 238° |
| 2026-04-30 18:31 | 40.36953 | -2.36964 | 15083 ft | 357 kts | 238° |
| 2026-04-30 18:32 | 40.34458 | -2.42260 | 15002 ft | 327 kts | 238° |
| 2026-04-30 18:32 | 40.33361 | -2.44849 | 14675 ft | 323 kts | 250° |
| 2026-04-30 18:32 | 40.32684 | -2.50561 | 14146 ft | 312 kts | 262° |
| 2026-04-30 18:33 | 40.32441 | -2.53377 | 13855 ft | 307 kts | 262° |
| 2026-04-30 18:33 | 40.31916 | -2.58835 | 13262 ft | 296 kts | 261° |
| 2026-04-30 18:33 | 40.31641 | -2.61486 | 12972 ft | 291 kts | 261° |
| 2026-04-30 18:34 | 40.31363 | -2.64092 | 12697 ft | 286 kts | 261° |
| 2026-04-30 18:34 | 40.30812 | -2.69157 | 12170 ft | 275 kts | 260° |
| 2026-04-30 18:34 | 40.30540 | -2.71619 | 11908 ft | 270 kts | 260° |
| 2026-04-30 18:35 | 40.30273 | -2.74035 | 11662 ft | 265 kts | 260° |
| 2026-04-30 18:35 | 40.30010 | -2.76405 | 11422 ft | 260 kts | 260° |
| 2026-04-30 18:35 | 40.29751 | -2.78730 | 11183 ft | 255 kts | 260° |
| 2026-04-30 18:36 | 40.29245 | -2.83251 | 10690 ft | 246 kts | 261° |
| 2026-04-30 18:36 | 40.28997 | -2.85460 | 10450 ft | 245 kts | 261° |
| 2026-04-30 18:36 | 40.28504 | -2.89845 | 9973 ft | 244 kts | 261° |
| 2026-04-30 18:37 | 40.28257 | -2.92040 | 9808 ft | 243 kts | 261° |
| 2026-04-30 18:37 | 40.28010 | -2.94233 | 9680 ft | 243 kts | 261° |
| 2026-04-30 18:37 | 40.27762 | -2.96430 | 9546 ft | 243 kts | 261° |
| 2026-04-30 18:37 | 40.27513 | -2.98619 | 9418 ft | 243 kts | 261° |
| 2026-04-30 18:38 | 40.27265 | -3.00809 | 9278 ft | 243 kts | 261° |
| 2026-04-30 18:38 | 40.27016 | -3.03000 | 9140 ft | 243 kts | 261° |
| 2026-04-30 18:38 | 40.26766 | -3.05190 | 9000 ft | 242 kts | 261° |
| 2026-04-30 18:38 | 40.26516 | -3.07368 | 8855 ft | 242 kts | 261° |
| 2026-04-30 18:39 | 40.26268 | -3.09550 | 8683 ft | 241 kts | 261° |
| 2026-04-30 18:39 | 40.26019 | -3.11725 | 8453 ft | 241 kts | 261° |
| 2026-04-30 18:39 | 40.25922 | -3.13909 | 8187 ft | 240 kts | 272° |
| 2026-04-30 18:39 | 40.26117 | -3.16083 | 7921 ft | 240 kts | 278° |
| 2026-04-30 18:40 | 40.26404 | -3.18232 | 7651 ft | 239 kts | 279° |
| 2026-04-30 18:40 | 40.26697 | -3.20368 | 7377 ft | 238 kts | 279° |
| 2026-04-30 18:40 | 40.26988 | -3.22497 | 7118 ft | 237 kts | 279° |
| 2026-04-30 18:40 | 40.27274 | -3.24632 | 6857 ft | 238 kts | 279° |
| 2026-04-30 18:41 | 40.27559 | -3.26769 | 6592 ft | 238 kts | 279° |
| 2026-04-30 18:41 | 40.27840 | -3.28907 | 6334 ft | 236 kts | 279° |
| 2026-04-30 18:41 | 40.28117 | -3.31008 | 6098 ft | 232 kts | 280° |
| 2026-04-30 18:41 | 40.28639 | -3.32996 | 5876 ft | 231 kts | 300° |
| 2026-04-30 18:42 | 40.29579 | -3.34727 | 5565 ft | 231 kts | 306° |
| 2026-04-30 18:42 | 40.31746 | -3.37764 | 5042 ft | 226 kts | 320° |
| 2026-04-30 18:42 | 40.32968 | -3.39002 | 5000 ft | 219 kts | 322° |
| 2026-04-30 18:45 | 40.43208 | -3.49390 | 2930 ft | 154 kts | 322° |
| 2026-04-30 18:45 | 40.44055 | -3.50254 | 2748 ft | 154 kts | 322° |
| 2026-04-30 18:45 | 40.44899 | -3.51114 | 2518 ft | 153 kts | 323° |
| 2026-04-30 18:46 | 40.45729 | -3.51961 | 2343 ft | 153 kts | 323° |
| 2026-04-30 18:46 | 40.46584 | -3.52832 | 2111 ft | 152 kts | 323° |
| 2026-04-30 18:46 | 40.47405 | -3.53672 | 1954 ft | 151 kts | 323° |
| 2026-04-30 18:46 | 40.48154 | -3.54432 | 1942 ft | 109 kts | 322° |
| 2026-04-30 18:47 | 40.48572 | -3.54859 | 1952 ft | 44 kts | 322° |
| 2026-04-30 18:47 | 40.48716 | -3.55021 | 1957 ft | 24 kts | 311° |
| 2026-04-30 18:47 | 40.48798 | -3.55201 | 1960 ft | 17 kts | 292° |
| 2026-04-30 18:47 | 40.48832 | -3.55310 | 1960 ft | 13 kts | 292° |
| 2026-04-30 18:48 | 40.48854 | -3.55375 | 1960 ft | 0 kts | 296° |
| 2026-04-30 18:48 | 40.48855 | -3.55379 | 1960 ft | 1 kts | 296° |
| 2026-04-30 18:48 | 40.48863 | -3.55399 | 1960 ft | 3 kts | 297° |
| 2026-04-30 18:49 | 40.48878 | -3.55432 | 1960 ft | 5 kts | 305° |
| 2026-04-30 18:49 | 40.48903 | -3.55470 | 1961 ft | 6 kts | 317° |
| 2026-04-30 18:49 | 40.48939 | -3.55510 | 1962 ft | 8 kts | 321° |
| 2026-04-30 18:49 | 40.48990 | -3.55563 | 1962 ft | 11 kts | 322° |
| 2026-04-30 18:50 | 40.49056 | -3.55629 | 1963 ft | 13 kts | 322° |
| 2026-04-30 18:50 | 40.49111 | -3.55685 | 1966 ft | 9 kts | 322° |
| 2026-04-30 18:50 | 40.49164 | -3.55739 | 1968 ft | 10 kts | 322° |
| 2026-04-30 18:50 | 40.49224 | -3.55799 | 1964 ft | 12 kts | 322° |
| 2026-04-30 18:51 | 40.49258 | -3.55835 | 1960 ft | 2 kts | 323° |
| 2026-04-30 18:51 | 40.49277 | -3.55854 | 1970 ft | 5 kts | 315° |
| 2026-04-30 18:51 | 40.49294 | -3.55902 | 1968 ft | 7 kts | 279° |
| 2026-04-30 18:51 | 40.49300 | -3.55983 | 1968 ft | 11 kts | 271° |
| 2026-04-30 18:52 | 40.49300 | -3.56029 | 1967 ft | 6 kts | 270° |
| 2026-04-30 18:52 | 40.49295 | -3.56095 | 1967 ft | 8 kts | 247° |
| 2026-04-30 18:52 | 40.49244 | -3.56137 | 1968 ft | 10 kts | 190° |
| 2026-04-30 18:52 | 40.49165 | -3.56140 | 1967 ft | 13 kts | 180° |
| 2026-04-30 18:53 | 40.49066 | -3.56140 | 1967 ft | 16 kts | 180° |
| 2026-04-30 18:53 | 40.48946 | -3.56139 | 1967 ft | 19 kts | 179° |
| 2026-04-30 18:53 | 40.48830 | -3.56140 | 1967 ft | 16 kts | 188° |
| 2026-04-30 18:53 | 40.48773 | -3.56235 | 1961 ft | 6 kts | 274° |
| 2026-04-30 18:54 | 40.48770 | -3.56299 | 1966 ft | 7 kts | 266° |
| 2026-04-30 18:54 | 40.48768 | -3.56367 | 1977 ft | 8 kts | 268° |
| 2026-04-30 18:54 | 40.48768 | -3.56440 | 1979 ft | 8 kts | 270° |
| 2026-04-30 18:54 | 40.48768 | -3.56517 | 1981 ft | 9 kts | 270° |
| 2026-04-30 18:55 | 40.48768 | -3.56598 | 1983 ft | 9 kts | 270° |
| 2026-04-30 18:55 | 40.48767 | -3.56786 | 1987 ft | 12 kts | 270° |
| 2026-04-30 18:55 | 40.48767 | -3.56898 | 1989 ft | 13 kts | 270° |
| 2026-04-30 18:56 | 40.48766 | -3.57152 | 1994 ft | 16 kts | 270° |
| 2026-04-30 18:56 | 40.48765 | -3.57302 | 1996 ft | 17 kts | 270° |
| 2026-04-30 18:56 | 40.48765 | -3.57432 | 1996 ft | 13 kts | 270° |
| 2026-04-30 18:57 | 40.48763 | -3.57703 | 2000 ft | 17 kts | 270° |
| 2026-04-30 18:57 | 40.48763 | -3.57864 | 2005 ft | 18 kts | 270° |
| 2026-04-30 18:57 | 40.48759 | -3.57999 | 2009 ft | 12 kts | 253° |
| 2026-04-30 18:58 | 40.48730 | -3.58035 | 2007 ft | 0 kts | 207° |
| 2026-04-30 19:00 | 40.48729 | -3.58036 | 2011 ft | 0 kts | 217° |
| 2026-04-30 19:00 | 40.48729 | -3.58051 | 2008 ft | 4 kts | 297° |
| 2026-04-30 19:00 | 40.48882 | -3.58051 | 2010 ft | 20 kts | 0° |
| 2026-04-30 19:01 | 40.49162 | -3.58053 | 2011 ft | 7 kts | 359° |
| 2026-04-30 19:01 | 40.49168 | -3.58053 | 2011 ft | 1 kts | 359° |
| 2026-04-30 19:02 | 40.49221 | -3.58033 | 2006 ft | 7 kts | 43° |
| 2026-04-30 19:02 | 40.49166 | -3.57934 | 2006 ft | 12 kts | 173° |
| 2026-04-30 19:03 | 40.48976 | -3.57928 | 2007 ft | 6 kts | 179° |
| 2026-04-30 19:03 | 40.48844 | -3.57927 | 2004 ft | 12 kts | 179° |
| 2026-04-30 19:04 | 40.48632 | -3.57925 | 2007 ft | 18 kts | 174° |
| 2026-04-30 19:04 | 40.48363 | -3.57742 | 2003 ft | 23 kts | 143° |
| 2026-04-30 19:05 | 40.48100 | -3.57476 | 2005 ft | 24 kts | 142° |
| 2026-04-30 19:05 | 40.47822 | -3.57194 | 2006 ft | 28 kts | 142° |
| 2026-04-30 19:06 | 40.47537 | -3.56904 | 2003 ft | 28 kts | 142° |
| 2026-04-30 19:06 | 40.47401 | -3.56765 | 1999 ft | 25 kts | 142° |
| 2026-04-30 19:06 | 40.47109 | -3.56487 | 1989 ft | 24 kts | 154° |
| 2026-04-30 19:07 | 40.46857 | -3.56459 | 1984 ft | 13 kts | 184° |
| 2026-04-30 19:07 | 40.46804 | -3.56542 | 1983 ft | 15 kts | 269° |
| 2026-04-30 19:08 | 40.46685 | -3.56703 | 1985 ft | 17 kts | 183° |
| 2026-04-30 19:08 | 40.46618 | -3.56716 | 1985 ft | 3 kts | 229° |
| 2026-04-30 19:08 | 40.46608 | -3.56763 | 1985 ft | 7 kts | 263° |
| 2026-04-30 19:09 | 40.46608 | -3.56795 | 1985 ft | 2 kts | 269° |
| 2026-04-30 19:09 | 40.46608 | -3.56798 | 1985 ft | 0 kts | 269° |